CheckWX is a tool to help pilots better visualize weather data.  It is not intended as a substitute for an official pre-flight weather briefing.

01:06:39 UTC

FCBB METAR
Maya-Maya Airport
Brazzaville, Congo
Current

1 hour ago

FCBB 240000Z 23002KT 8000 NSC 23/22 Q1011 NOSIG
Observed
Feb-24 @ 00:00 UTC
Wind
  • 230° at 2 KTS
Visibility
7,998 meters
Flight Rules
MVFR
Cloud Levels
  • Clear skies
Temperature
23°C / 73°F
Dewpoint
22°C / 72°F
Humidity
94%
Altimeter
29.85" Hg
Pressure
1010.92 hPa
Previous

2 hours ago

FCBB 232300Z 24003KT 8000 NSC 23/22 Q1012 NOSIG
Observed
Feb-23 @ 23:00 UTC
Wind
  • 240° at 3 KTS
Visibility
7,998 meters
Flight Rules
MVFR
Cloud Levels
  • Clear skies
Temperature
23°C / 73°F
Dewpoint
22°C / 72°F
Humidity
94%
Altimeter
29.88" Hg
Pressure
1011.92 hPa
Previous

3 hours ago

FCBB 232200Z 23005KT 8000 NSC 24/22 Q1012 NOSIG
Observed
Feb-23 @ 22:00 UTC
Wind
  • 230° at 5 KTS
Visibility
7,998 meters
Flight Rules
MVFR
Cloud Levels
  • Clear skies
Temperature
24°C / 75°F
Dewpoint
22°C / 72°F
Humidity
89%
Altimeter
29.88" Hg
Pressure
1011.92 hPa